Time;durP1;ratioP1;P1;durP2;ratioP2;P2;SDS_P1;SDS_P2;PMS_P1;PMS_P2;Temp;Humidity;BMP_temperature;BMP_pressure;BME280_temperature;BME280_humidity;BME280_pressure;Samples;Min_cycle;Max_cycle;Signal;HPM_P1;HPM_P2
2023/07/26 00:01:32;;;;;;;36.45;9.00;;;;;;;28.77;40.70;94189.69;4938427;29;20032;-87
2023/07/26 00:03:58;;;;;;;35.33;9.13;;;;;;;28.82;40.73;94190.41;4921809;29;20036;-87
2023/07/26 00:06:29;;;;;;;20.63;8.45;;;;;;;28.65;40.22;94145.81;4967741;28;20035;-87
2023/07/26 00:08:54;;;;;;;24.25;8.55;;;;;;;28.54;39.79;94099.59;4954129;29;20058;-87
2023/07/26 00:11:20;;;;;;;26.55;7.47;;;;;;;29.10;40.06;94177.09;4942217;29;20044;-87
2023/07/26 00:13:46;;;;;;;24.83;7.05;;;;;;;28.78;40.75;94179.53;4971971;28;20093;-87
2023/07/26 00:16:11;;;;;;;19.73;7.78;;;;;;;28.01;41.02;94063.00;4940940;29;20032;-87
2023/07/26 00:18:38;;;;;;;18.52;7.78;;;;;;;27.74;40.60;93980.50;4952695;28;20036;-87
2023/07/26 00:21:04;;;;;;;26.88;8.80;;;;;;;28.23;41.72;94089.97;5034953;28;20188;-87
2023/07/26 00:23:30;;;;;;;28.02;8.25;;;;;;;28.86;41.75;94163.84;4963133;28;20078;-87
2023/07/26 00:25:56;;;;;;;24.02;7.72;;;;;;;28.74;42.04;94152.31;5046377;28;20552;-87
2023/07/26 00:28:21;;;;;;;20.75;7.25;;;;;;;28.42;42.24;94116.56;5043603;28;20023;-87
2023/07/26 00:30:49;;;;;;;21.55;7.75;;;;;;;28.37;42.20;94131.44;5005845;28;20047;-87
2023/07/26 00:33:14;;;;;;;22.60;7.18;;;;;;;28.56;42.20;94140.88;4958758;28;20039;-87
2023/07/26 00:35:42;;;;;;;24.40;8.60;;;;;;;28.65;42.31;94159.47;4940364;29;20046;-87
2023/07/26 00:38:07;;;;;;;16.92;7.63;;;;;;;28.25;42.24;94098.50;4940508;29;20046;-87
2023/07/26 00:40:33;;;;;;;18.20;7.60;;;;;;;28.63;42.45;94140.00;4940235;29;20031;-87
2023/07/26 00:42:58;;;;;;;20.33;7.95;;;;;;;27.69;43.14;94021.81;4940160;28;20032;-87
2023/07/26 00:45:25;;;;;;;25.13;8.32;;;;;;;27.30;42.66;93973.28;4955769;29;20066;-87
2023/07/26 00:47:51;;;;;;;19.63;7.28;;;;;;;26.74;42.37;93868.63;4941185;28;20045;-87
2023/07/26 00:50:18;;;;;;;20.95;7.15;;;;;;;28.62;43.14;94154.81;4939961;29;20019;-87
2023/07/26 00:52:43;;;;;;;22.52;8.15;;;;;;;27.63;43.37;94042.50;4936116;28;20058;-87
2023/07/26 00:55:09;;;;;;;17.13;7.57;;;;;;;28.51;43.60;94143.31;4943671;29;20039;-87
2023/07/26 00:57:36;;;;;;;19.77;7.70;;;;;;;27.70;44.50;94083.25;4956571;29;20059;-87
2023/07/26 01:00:02;;;;;;;20.95;7.95;;;;;;;28.16;44.97;94156.25;4940184;28;20039;-87
2023/07/26 01:02:28;;;;;;;18.58;8.13;;;;;;;28.28;44.89;94139.34;4960586;28;20040;-87
2023/07/26 01:04:53;;;;;;;28.25;7.78;;;;;;;28.41;45.58;94151.25;4977179;28;20181;-87
2023/07/26 01:07:54;;;;;;;26.02;7.82;;;;;;;28.32;46.45;94139.28;4944899;28;20047;-87
2023/07/26 01:10:21;;;;;;;22.80;7.30;;;;;;;28.36;46.53;94159.13;4934163;29;20146;-87
2023/07/26 01:12:54;;;;;;;24.77;8.32;;;;;;;27.41;46.42;94041.19;4935901;28;20063;-87
2023/07/26 01:15:24;;;;;;;20.20;7.55;;;;;;;27.85;46.28;94089.28;5007055;28;20132;-87
2023/07/26 01:18:06;;;;;;;22.75;8.13;;;;;;;27.48;46.48;94057.44;4940002;28;20386;-87
2023/07/26 01:20:32;;;;;;;23.15;7.38;;;;;;;27.38;46.55;94026.47;4938908;29;20039;-87
2023/07/26 01:22:57;;;;;;;19.35;7.68;;;;;;;27.56;46.34;94067.88;4939307;29;20533;-87
2023/07/26 01:25:23;;;;;;;15.35;8.10;;;;;;;28.07;46.24;94111.59;4959675;28;20114;-87
2023/07/26 01:27:48;;;;;;;22.75;8.23;;;;;;;27.02;46.71;93979.84;4950425;29;20050;-87
2023/07/26 01:30:14;;;;;;;25.30;8.45;;;;;;;27.21;46.39;94024.72;4955989;28;20039;-87
2023/07/26 01:32:43;;;;;;;21.88;7.60;;;;;;;27.88;46.16;94116.50;4936921;29;20099;-88
2023/07/26 01:35:09;;;;;;;24.40;8.02;;;;;;;26.75;46.67;93963.41;4920980;29;20059;-87
2023/07/26 01:37:36;;;;;;;26.17;7.97;;;;;;;27.96;46.68;94138.97;4933359;29;20031;-88
2023/07/26 01:40:04;;;;;;;19.15;7.47;;;;;;;27.53;46.81;94089.72;4968557;28;20035;-88
2023/07/26 01:42:31;;;;;;;22.58;8.05;;;;;;;27.83;46.43;94097.13;4953253;29;20042;-88
2023/07/26 01:45:04;;;;;;;23.08;8.05;;;;;;;27.62;47.13;94060.03;4935960;28;20039;-87
2023/07/26 01:47:30;;;;;;;21.60;8.43;;;;;;;27.64;47.19;94065.84;4937407;29;20024;-88
2023/07/26 01:49:56;;;;;;;32.03;8.38;;;;;;;27.39;47.98;94049.03;4954450;29;20131;-88
2023/07/26 01:52:23;;;;;;;14.98;7.20;;;;;;;27.67;47.99;94089.53;4954515;29;20098;-88
2023/07/26 01:54:48;;;;;;;22.02;8.07;;;;;;;27.80;47.84;94097.94;4954063;29;20081;-87
2023/07/26 01:57:14;;;;;;;26.48;7.32;;;;;;;27.97;47.24;94094.97;4943462;28;20032;-88
2023/07/26 01:59:39;;;;;;;26.40;8.00;;;;;;;26.70;47.47;93911.44;4965866;28;20031;-87
2023/07/26 02:02:05;;;;;;;26.60;7.47;;;;;;;26.46;47.46;93853.44;4938039;29;20398;-88
2023/07/26 02:04:30;;;;;;;21.98;7.63;;;;;;;27.93;47.84;94110.59;4941654;29;20088;-88
2023/07/26 02:06:56;;;;;;;23.63;7.20;;;;;;;26.81;47.61;93967.22;4952133;29;20059;-88
2023/07/26 02:09:21;;;;;;;26.70;8.07;;;;;;;27.64;47.57;94036.66;4939804;29;20068;-88
2023/07/26 02:11:47;;;;;;;28.63;8.35;;;;;;;27.73;47.80;94106.19;4940474;28;20052;-89
2023/07/26 02:14:12;;;;;;;22.45;9.00;;;;;;;27.18;48.18;94022.81;4953832;28;20503;-88
2023/07/26 02:16:37;;;;;;;24.40;8.88;;;;;;;27.07;48.36;94027.63;4967774;28;20069;-88
2023/07/26 02:19:03;;;;;;;17.55;8.10;;;;;;;27.34;47.73;94047.50;4923283;29;20035;-87
2023/07/26 02:21:29;;;;;;;19.92;8.55;;;;;;;27.48;48.75;94096.34;4936766;29;20062;-87
2023/07/26 02:23:54;;;;;;;31.42;7.95;;;;;;;27.48;48.06;94101.00;4936034;28;20039;-87
2023/07/26 02:26:20;;;;;;;18.95;7.80;;;;;;;27.28;47.86;94054.59;4936603;29;20048;-87
2023/07/26 02:28:45;;;;;;;25.42;8.25;;;;;;;27.52;48.03;94112.66;4930962;29;20467;-87
2023/07/26 02:31:11;;;;;;;23.27;8.02;;;;;;;27.70;48.05;94102.31;4959630;28;20042;-87
2023/07/26 02:33:36;;;;;;;18.50;8.60;;;;;;;27.53;47.40;94076.09;4940855;29;20035;-87
2023/07/26 02:36:02;;;;;;;20.50;7.90;;;;;;;27.12;47.71;94008.13;4940461;28;20114;-87
2023/07/26 02:38:27;;;;;;;19.40;7.72;;;;;;;27.39;47.81;94038.13;4927144;29;20051;-87
2023/07/26 02:40:53;;;;;;;22.60;9.10;;;;;;;26.80;47.99;94025.53;4933132;29;20070;-87
2023/07/26 02:43:18;;;;;;;26.30;8.52;;;;;;;27.20;47.24;94064.00;4925189;29;20040;-87
2023/07/26 02:45:43;;;;;;;26.23;8.52;;;;;;;26.97;47.64;94025.78;4936880;29;20035;-87
2023/07/26 02:48:09;;;;;;;25.95;8.82;;;;;;;27.32;47.07;94041.69;4939056;29;20100;-87
2023/07/26 02:50:34;;;;;;;26.58;8.30;;;;;;;27.51;47.30;94102.94;4937691;29;20050;-87
2023/07/26 02:53:00;;;;;;;24.38;8.27;;;;;;;26.06;47.84;93941.94;4938276;29;20113;-87
2023/07/26 02:55:25;;;;;;;28.70;8.48;;;;;;;26.66;47.64;94016.75;4939388;29;20032;-87
2023/07/26 02:57:51;;;;;;;26.08;8.38;;;;;;;27.52;47.19;94137.94;4970162;28;20093;-87
2023/07/26 03:00:16;;;;;;;27.58;8.25;;;;;;;26.85;47.57;94060.44;4938658;29;20067;-87
2023/07/26 03:02:42;;;;;;;16.20;7.75;;;;;;;27.29;47.71;94143.25;4937564;29;20035;-88
2023/07/26 03:05:08;;;;;;;19.45;8.43;;;;;;;26.95;47.37;94063.50;4937814;29;20105;-88
2023/07/26 03:07:34;;;;;;;31.00;9.48;;;;;;;26.78;47.68;94025.16;4938013;29;20042;-88
2023/07/26 03:09:59;;;;;;;27.63;8.40;;;;;;;27.21;47.54;94099.00;4943363;29;20031;-88
2023/07/26 03:12:25;;;;;;;19.27;7.90;;;;;;;27.17;47.47;94059.38;4946992;29;20117;-88
2023/07/26 03:14:51;;;;;;;26.65;8.00;;;;;;;27.02;47.88;94047.09;4940633;29;20050;-88
2023/07/26 03:17:17;;;;;;;24.10;8.13;;;;;;;26.88;48.48;94065.06;4940923;28;20654;-87
2023/07/26 03:19:42;;;;;;;32.83;8.50;;;;;;;27.53;48.19;94152.34;4941099;29;20035;-88
2023/07/26 03:22:08;;;;;;;20.80;8.85;;;;;;;26.32;49.15;94022.09;4956725;29;20095;-88
2023/07/26 03:24:33;;;;;;;20.38;8.48;;;;;;;26.82;49.75;94090.41;4924750;28;20027;-88
2023/07/26 03:26:59;;;;;;;23.92;8.82;;;;;;;27.05;49.95;94128.69;4954397;29;20401;-88
2023/07/26 03:29:24;;;;;;;24.58;9.65;;;;;;;26.63;49.65;94080.06;4940831;29;20035;-88
2023/07/26 03:31:50;;;;;;;20.88;9.20;;;;;;;26.66;50.21;94098.31;4941109;29;20043;-88
2023/07/26 03:34:15;;;;;;;23.13;8.75;;;;;;;26.68;49.80;94058.69;4922439;28;20055;-88
2023/07/26 03:36:41;;;;;;;29.08;9.20;;;;;;;27.28;49.33;94152.56;4940550;29;20087;-88
2023/07/26 03:39:06;;;;;;;20.33;9.32;;;;;;;26.74;49.63;94086.97;4941499;29;20039;-88
2023/07/26 03:41:32;;;;;;;32.50;8.57;;;;;;;26.42;49.65;94032.09;4940223;29;20031;-88
2023/07/26 03:43:57;;;;;;;31.25;9.35;;;;;;;27.24;50.14;94157.28;4940657;28;20035;-88
2023/07/26 03:46:23;;;;;;;22.73;9.68;;;;;;;26.80;49.83;94084.59;4940534;29;20054;-88
2023/07/26 03:48:48;;;;;;;23.40;9.02;;;;;;;26.60;51.11;94073.50;4940483;29;20118;-88
2023/07/26 03:51:14;;;;;;;22.90;9.20;;;;;;;26.76;50.77;94086.59;4940001;29;20027;-88
2023/07/26 03:53:39;;;;;;;30.60;10.88;;;;;;;26.27;51.27;94036.09;4948098;28;20047;-88
2023/07/26 03:56:05;;;;;;;26.42;8.73;;;;;;;26.98;50.85;94133.44;4921126;28;20032;-88
2023/07/26 03:58:30;;;;;;;22.60;8.63;;;;;;;26.50;51.11;94007.16;4921005;29;20036;-88
2023/07/26 04:00:56;;;;;;;20.95;9.05;;;;;;;25.51;51.37;93920.97;4935766;29;20135;-88
2023/07/26 04:03:21;;;;;;;20.17;8.85;;;;;;;26.51;51.43;94084.84;4924326;28;20035;-88
2023/07/26 04:05:47;;;;;;;20.95;8.13;;;;;;;26.41;51.93;94069.38;4936881;29;20540;-87
2023/07/26 04:08:12;;;;;;;23.77;8.95;;;;;;;26.87;51.56;94104.34;4939923;29;20039;-88
2023/07/26 04:10:38;;;;;;;21.98;9.32;;;;;;;25.90;52.16;94002.19;5004301;28;20062;-88
2023/07/26 04:13:03;;;;;;;18.48;8.25;;;;;;;25.58;52.51;93955.44;4957872;29;20043;-88
2023/07/26 04:15:30;;;;;;;17.35;8.73;;;;;;;26.74;52.25;94132.44;4941310;29;20516;-88
2023/07/26 04:17:56;;;;;;;31.63;10.63;;;;;;;27.13;52.12;94179.16;4941041;28;20031;-88
2023/07/26 04:20:22;;;;;;;27.25;8.80;;;;;;;26.68;51.26;94085.88;4939550;28;20075;-88
2023/07/26 04:22:47;;;;;;;17.77;8.75;;;;;;;27.16;51.60;94150.34;4957666;29;20031;-88
2023/07/26 04:25:13;;;;;;;31.50;9.73;;;;;;;26.62;51.80;94068.44;4939155;29;20046;-88
2023/07/26 04:27:38;;;;;;;21.35;9.55;;;;;;;27.51;50.96;94165.56;4939288;28;20035;-87
2023/07/26 04:30:04;;;;;;;29.85;9.35;;;;;;;26.18;51.15;93963.16;4939528;28;20429;-87
2023/07/26 04:32:30;;;;;;;28.13;9.70;;;;;;;27.27;52.12;94205.47;4940174;28;20029;-87
2023/07/26 04:34:55;;;;;;;25.88;9.15;;;;;;;26.77;52.43;94105.22;4956369;28;20118;-87
2023/07/26 04:37:22;;;;;;;29.10;9.95;;;;;;;26.93;52.25;94096.53;4956311;29;20032;-87
2023/07/26 04:39:48;;;;;;;23.55;9.15;;;;;;;26.92;52.54;94105.91;4939135;28;20039;-87
2023/07/26 04:42:14;;;;;;;28.80;9.98;;;;;;;25.06;52.78;93903.03;4994835;28;20111;-86
2023/07/26 04:44:39;;;;;;;25.10;9.63;;;;;;;25.81;53.03;94010.03;4945948;28;20122;-87
2023/07/26 04:47:05;;;;;;;27.80;9.70;;;;;;;26.51;52.49;94067.75;4938760;29;20035;-87
2023/07/26 04:49:32;;;;;;;34.80;10.30;;;;;;;25.98;53.15;93968.38;4920553;29;20039;-87
2023/07/26 04:51:57;;;;;;;28.90;9.43;;;;;;;26.69;53.33;94116.56;4923040;28;20031;-87
2023/07/26 04:54:23;;;;;;;27.13;9.63;;;;;;;26.88;53.23;94171.19;4956191;28;20087;-87
2023/07/26 04:56:48;;;;;;;17.95;8.75;;;;;;;26.76;52.96;94100.97;4938790;28;20525;-88
2023/07/26 04:59:14;;;;;;;23.48;9.30;;;;;;;26.59;53.44;94092.94;4956929;29;20063;-87
2023/07/26 05:01:40;;;;;;;31.00;10.48;;;;;;;26.05;54.18;94073.50;4939273;28;20023;-88
2023/07/26 05:04:05;;;;;;;19.27;8.50;;;;;;;26.56;52.99;94080.13;4970252;28;20112;-88
2023/07/26 05:06:31;;;;;;;34.90;10.40;;;;;;;27.07;52.55;94134.50;4965731;28;20075;-88
2023/07/26 05:08:57;;;;;;;32.08;9.32;;;;;;;26.89;52.89;94106.66;4938573;29;20524;-88
2023/07/26 05:11:22;;;;;;;25.38;9.70;;;;;;;26.76;52.59;94060.16;4956983;29;20047;-88
2023/07/26 05:13:49;;;;;;;26.27;9.25;;;;;;;26.98;52.22;94114.38;4954170;29;20043;-88
2023/07/26 05:16:14;;;;;;;23.27;9.13;;;;;;;27.22;51.66;94133.19;4938170;28;20073;-88
2023/07/26 05:18:40;;;;;;;21.55;9.90;;;;;;;27.15;51.58;94108.00;4955266;28;20122;-88
2023/07/26 05:21:06;;;;;;;25.58;10.18;;;;;;;27.39;50.84;94111.63;4939607;28;20061;-88
2023/07/26 05:23:31;;;;;;;30.13;9.05;;;;;;;27.43;49.74;94104.19;5001979;28;20130;-88
2023/07/26 05:25:56;;;;;;;29.83;9.32;;;;;;;27.55;49.83;94077.22;5001669;28;20047;-88
2023/07/26 05:28:22;;;;;;;23.05;8.80;;;;;;;27.63;49.31;94059.63;4936854;28;20039;-88
2023/07/26 05:30:48;;;;;;;30.27;10.57;;;;;;;27.80;49.52;94117.00;5004032;28;20482;-89
2023/07/26 05:33:15;;;;;;;24.55;8.82;;;;;;;28.02;49.34;94129.16;4936655;29;20038;-89
2023/07/26 05:35:40;;;;;;;24.58;9.43;;;;;;;27.83;49.20;94095.19;4987985;28;20104;-89
2023/07/26 05:38:06;;;;;;;22.65;9.07;;;;;;;27.51;49.08;94070.25;4942759;28;20036;-89
2023/07/26 05:40:31;;;;;;;40.72;9.70;;;;;;;27.71;49.54;94116.72;5036076;28;20507;-88
2023/07/26 05:42:57;;;;;;;27.70;9.32;;;;;;;27.45;49.18;94071.91;5023578;28;20035;-89
2023/07/26 05:45:22;;;;;;;33.58;10.40;;;;;;;27.09;50.27;94071.50;4939134;29;20045;-89
2023/07/26 05:47:48;;;;;;;34.78;10.48;;;;;;;27.16;50.56;94044.97;4957099;28;20035;-88
2023/07/26 05:50:14;;;;;;;28.52;9.05;;;;;;;26.97;50.17;94072.03;4955258;29;20050;-88
2023/07/26 05:52:40;;;;;;;25.23;9.45;;;;;;;27.35;50.37;94143.56;4938732;28;20516;-89
2023/07/26 05:55:06;;;;;;;30.65;9.05;;;;;;;27.36;49.65;94115.94;4955594;29;20044;-88
2023/07/26 05:57:32;;;;;;;34.85;9.48;;;;;;;27.57;49.52;94132.06;4965420;28;20039;-88
2023/07/26 05:59:57;;;;;;;28.33;9.07;;;;;;;27.69;49.45;94136.22;4956458;29;20043;-89
2023/07/26 06:02:22;;;;;;;37.40;10.32;;;;;;;27.60;49.30;94136.69;4936727;29;20093;-88
2023/07/26 06:04:48;;;;;;;27.40;8.80;;;;;;;27.75;49.20;94136.53;4963788;28;20118;-89
2023/07/26 06:07:15;;;;;;;24.42;9.30;;;;;;;27.82;49.31;94139.16;4951488;28;20050;-87
2023/07/26 06:09:41;;;;;;;26.63;9.20;;;;;;;26.83;48.56;93970.31;4938444;29;20141;-89
2023/07/26 06:12:07;;;;;;;34.58;9.98;;;;;;;27.99;48.12;94125.31;5037095;28;20094;-88
2023/07/26 06:14:32;;;;;;;23.23;9.07;;;;;;;27.83;48.21;94099.84;4953249;28;20047;-89
2023/07/26 06:16:58;;;;;;;38.33;9.73;;;;;;;27.78;48.39;94106.50;5035130;28;20039;-88
2023/07/26 06:19:24;;;;;;;31.42;10.13;;;;;;;27.54;48.12;94064.78;4952938;28;20058;-88
2023/07/26 06:21:50;;;;;;;43.88;10.15;;;;;;;27.85;48.24;94089.28;4954144;29;20036;-88
2023/07/26 06:24:15;;;;;;;22.40;9.77;;;;;;;27.95;48.62;94113.69;4937534;28;20039;-88
2023/07/26 06:26:41;;;;;;;24.70;9.98;;;;;;;27.89;47.83;94077.19;4936921;28;20141;-88
2023/07/26 06:29:06;;;;;;;36.63;10.50;;;;;;;27.86;47.01;94044.53;4954344;29;20355;-88
2023/07/26 06:31:32;;;;;;;26.50;9.48;;;;;;;27.85;46.98;94026.63;4954656;29;20035;-88
2023/07/26 06:33:57;;;;;;;30.77;9.73;;;;;;;27.77;46.52;94017.03;4955624;28;20043;-88
2023/07/26 06:36:22;;;;;;;33.30;9.23;;;;;;;28.47;46.53;94135.19;4949611;29;20035;-88
2023/07/26 06:38:48;;;;;;;35.42;10.38;;;;;;;28.51;46.50;94116.81;4935751;28;20031;-88
2023/07/26 06:41:13;;;;;;;34.22;10.15;;;;;;;28.47;46.80;94063.50;4920315;29;20497;-88
2023/07/26 06:43:39;;;;;;;34.83;9.98;;;;;;;28.02;46.46;94003.81;4934733;29;20035;-88
2023/07/26 06:46:04;;;;;;;37.03;10.50;;;;;;;28.62;46.39;94081.94;4952857;29;20050;-88
2023/07/26 06:48:30;;;;;;;53.95;10.77;;;;;;;28.72;44.45;94075.56;4935506;29;20035;-88
2023/07/26 06:50:55;;;;;;;67.45;12.57;;;;;;;28.89;44.50;94075.69;4941127;28;20039;-88
2023/07/26 06:53:21;;;;;;;32.05;9.27;;;;;;;29.01;42.57;94089.50;4953396;28;20085;-87
2023/07/26 06:55:46;;;;;;;30.92;10.02;;;;;;;29.26;41.63;94102.69;4940920;28;20092;-88
2023/07/26 06:58:11;;;;;;;136.85;14.05;;;;;;;29.58;41.54;94136.88;4994917;28;20039;-88
2023/07/26 07:00:37;;;;;;;141.43;13.45;;;;;;;29.18;41.67;94057.59;4936960;29;20448;-88
2023/07/26 07:03:03;;;;;;;87.20;12.00;;;;;;;29.79;41.28;94125.50;4937425;29;20054;-88
2023/07/26 07:05:33;;;;;;;25.02;7.78;;;;;;;29.55;34.66;94068.22;4946932;29;20520;-88
2023/07/26 07:07:59;;;;;;;44.92;9.32;;;;;;;29.57;36.37;94058.84;4929167;28;20039;-88
2023/07/26 07:10:24;;;;;;;29.92;7.95;;;;;;;29.91;34.54;94103.00;4944763;28;20095;-87
2023/07/26 07:12:50;;;;;;;32.88;8.32;;;;;;;29.55;34.75;94021.78;4943609;28;20052;-88
2023/07/26 07:15:15;;;;;;;38.42;9.20;;;;;;;29.76;34.75;94047.88;4959398;28;20109;-88
2023/07/26 07:17:41;;;;;;;39.42;9.27;;;;;;;30.28;33.05;94110.06;4938189;29;20094;-88
2023/07/26 07:20:08;;;;;;;33.90;8.85;;;;;;;28.99;32.11;93887.19;4988752;28;20523;-88
2023/07/26 07:22:37;;;;;;;38.60;7.75;;;;;;;30.28;32.34;94058.09;4954872;28;20028;-87
2023/07/26 07:25:03;;;;;;;27.08;8.38;;;;;;;30.63;33.23;94092.06;4921923;28;20063;-88
2023/07/26 07:27:29;;;;;;;32.17;8.73;;;;;;;30.13;33.08;94002.19;4940165;28;20042;-87
2023/07/26 07:29:54;;;;;;;27.20;7.22;;;;;;;30.90;29.55;94113.66;4957348;28;20038;-87
2023/07/26 07:32:20;;;;;;;29.77;6.70;;;;;;;30.36;27.63;94023.91;4968006;28;20510;-88
2023/07/26 07:34:46;;;;;;;36.53;7.18;;;;;;;30.71;28.16;94062.56;4961677;28;20039;-88
2023/07/26 07:37:12;;;;;;;31.13;8.00;;;;;;;29.85;28.45;93922.34;4950249;28;20041;-88
2023/07/26 07:39:37;;;;;;;26.00;7.20;;;;;;;30.78;28.81;94045.94;4942671;29;20035;-88
2023/07/26 07:42:03;;;;;;;31.58;8.60;;;;;;;31.08;28.75;94094.88;4942276;28;20118;-87
2023/07/26 07:44:29;;;;;;;26.95;7.78;;;;;;;31.33;29.22;94108.69;4956346;28;20417;-88
2023/07/26 07:46:55;;;;;;;37.92;7.75;;;;;;;31.40;28.87;94115.94;4938163;29;20027;-88
2023/07/26 07:49:20;;;;;;;36.85;8.10;;;;;;;31.31;29.33;94124.78;4938627;28;20043;-87
2023/07/26 07:51:46;;;;;;;23.90;7.15;;;;;;;31.25;29.29;94093.63;4936654;29;20036;-88
2023/07/26 07:54:11;;;;;;;27.73;7.40;;;;;;;30.90;28.76;94034.28;4938294;29;20031;-88
2023/07/26 07:56:37;;;;;;;23.67;7.50;;;;;;;31.26;29.30;94073.28;4938656;29;20046;-89
2023/07/26 07:59:03;;;;;;;29.60;8.45;;;;;;;31.69;29.12;94133.19;4938790;28;20527;-88
2023/07/26 08:01:29;;;;;;;32.63;7.28;;;;;;;31.47;29.39;94084.84;4948345;28;20063;-89
2023/07/26 08:03:54;;;;;;;32.13;7.57;;;;;;;31.55;28.72;94110.84;4938048;29;20484;-88
2023/07/26 08:06:20;;;;;;;26.00;8.27;;;;;;;31.61;28.44;94125.56;4941287;28;20048;-88
2023/07/26 08:08:45;;;;;;;28.27;7.47;;;;;;;31.21;29.29;94073.78;4943409;29;20027;-88
2023/07/26 08:11:11;;;;;;;33.67;8.15;;;;;;;31.40;28.89;94078.34;4939414;28;20049;-89
2023/07/26 08:13:37;;;;;;;36.72;7.53;;;;;;;31.66;29.00;94103.13;4935570;29;20047;-89
2023/07/26 08:16:03;;;;;;;27.33;6.95;;;;;;;31.42;28.52;94062.25;4937717;29;20042;-88
2023/07/26 08:18:28;;;;;;;44.70;7.55;;;;;;;31.39;27.95;94054.13;4936070;29;20108;-88
2023/07/26 08:20:54;;;;;;;35.53;8.23;;;;;;;31.82;28.14;94119.50;4935394;29;20367;-88
2023/07/26 08:23:19;;;;;;;31.33;7.63;;;;;;;31.18;28.62;94016.38;4935354;29;20035;-89
2023/07/26 08:25:44;;;;;;;23.77;6.15;;;;;;;29.88;27.29;93812.19;4928358;29;20132;-88
2023/07/26 08:28:10;;;;;;;31.33;7.40;;;;;;;32.11;27.64;94124.94;4932457;29;20032;-89
2023/07/26 08:30:37;;;;;;;32.50;7.22;;;;;;;32.17;27.52;94118.50;4934853;29;20089;-89
2023/07/26 08:33:03;;;;;;;34.58;7.18;;;;;;;32.17;27.36;94124.00;4936444;29;20031;-89
2023/07/26 08:35:29;;;;;;;32.15;7.55;;;;;;;31.80;25.92;94062.38;4935503;29;20039;-88
2023/07/26 08:37:55;;;;;;;31.05;6.75;;;;;;;32.23;25.52;94107.75;4953391;28;20075;-89
2023/07/26 08:40:21;;;;;;;21.90;6.30;;;;;;;31.63;25.19;94010.81;4932735;29;20081;-89
2023/07/26 08:42:46;;;;;;;25.65;6.30;;;;;;;30.63;25.08;93873.16;4936059;29;20032;-88
2023/07/26 08:45:12;;;;;;;28.35;7.60;;;;;;;31.92;25.69;94030.69;4935008;29;20044;-89
2023/07/26 08:47:39;;;;;;;37.60;6.78;;;;;;;30.97;24.10;93886.28;4918285;28;20047;-89
2023/07/26 08:50:06;;;;;;;34.80;6.90;;;;;;;31.37;24.38;93944.22;4943701;29;20028;-89
2023/07/26 08:52:32;;;;;;;30.38;7.07;;;;;;;32.43;24.80;94075.38;4938281;29;20016;-91
2023/07/26 08:54:59;;;;;;;26.48;6.95;;;;;;;31.62;25.13;93979.91;4922215;29;20031;-89
2023/07/26 08:57:25;;;;;;;29.70;6.35;;;;;;;32.45;23.82;94085.91;4940459;28;20035;-89
2023/07/26 08:59:51;;;;;;;21.60;5.85;;;;;;;32.09;23.86;94045.84;4940558;29;20031;-89
2023/07/26 09:02:19;;;;;;;26.75;6.05;;;;;;;32.18;24.38;94089.88;4963238;28;20033;-89
2023/07/26 09:04:48;;;;;;;27.38;6.82;;;;;;;32.04;24.30;94042.88;4930728;29;20039;-89
2023/07/26 09:07:14;;;;;;;29.60;6.20;;;;;;;32.20;23.96;94071.00;4936254;28;20059;-87
2023/07/26 09:09:40;;;;;;;35.83;6.05;;;;;;;32.13;22.43;94065.69;4942885;29;20066;-89
2023/07/26 09:12:07;;;;;;;26.23;5.85;;;;;;;32.01;22.17;94035.53;4939639;29;20432;-89
2023/07/26 09:14:33;;;;;;;28.08;5.55;;;;;;;32.40;23.33;94086.47;4938673;29;20107;-89
2023/07/26 09:17:02;;;;;;;19.77;6.40;;;;;;;32.17;23.45;94065.63;4937648;29;20048;-88
2023/07/26 09:19:38;;;;;;;22.52;5.55;;;;;;;31.32;23.28;93920.88;4903882;29;20047;-89
2023/07/26 09:22:07;;;;;;;22.50;6.15;;;;;;;32.72;23.05;94141.16;4937316;28;20042;-89
2023/07/26 09:24:35;;;;;;;21.90;5.82;;;;;;;32.27;22.53;94028.84;4933440;29;20648;-89
2023/07/26 09:27:09;;;;;;;25.48;5.68;;;;;;;32.46;23.26;94087.47;4918608;29;20040;-89
2023/07/26 09:29:36;;;;;;;24.83;5.75;;;;;;;32.84;23.51;94132.13;4956450;28;20039;-90
2023/07/26 09:32:02;;;;;;;33.63;6.80;;;;;;;32.82;23.81;94148.28;4937818;29;20063;-89
2023/07/26 09:34:29;;;;;;;27.17;6.10;;;;;;;32.60;23.67;94111.69;4936973;29;20028;-89
2023/07/26 09:36:56;;;;;;;21.02;5.38;;;;;;;32.82;24.23;94151.03;4936246;29;20058;-88
2023/07/26 09:39:27;;;;;;;31.88;7.47;;;;;;;32.87;24.23;94149.72;4954795;28;20032;-89
2023/07/26 09:42:06;;;;;;;29.00;6.73;;;;;;;32.84;24.66;94120.38;4930384;28;20043;-88
2023/07/26 09:44:32;;;;;;;21.58;5.78;;;;;;;31.53;25.06;93951.56;4936074;29;20036;-89
2023/07/26 09:46:58;;;;;;;24.65;6.72;;;;;;;31.38;25.37;93919.13;4936761;29;20040;-89
2023/07/26 09:49:27;;;;;;;36.65;7.10;;;;;;;32.20;25.09;94062.75;4935465;29;20070;-88
2023/07/26 09:51:57;;;;;;;30.85;7.10;;;;;;;32.95;25.26;94137.28;4947065;29;20125;-87
2023/07/26 09:54:31;;;;;;;26.65;7.10;;;;;;;32.10;25.02;93948.66;4934054;29;20035;-88
2023/07/26 09:56:57;;;;;;;25.00;6.63;;;;;;;33.12;24.80;94030.78;4933910;29;20043;-88
2023/07/26 09:59:28;;;;;;;33.05;6.40;;;;;;;33.77;24.52;94072.06;4932923;29;20498;-89
2023/07/26 10:01:57;;;;;;;31.63;6.70;;;;;;;34.38;24.16;94082.34;4917963;29;20394;-88
2023/07/26 10:04:33;;;;;;;24.27;6.45;;;;;;;34.78;22.93;94089.84;4932118;29;20046;-88
2023/07/26 10:07:02;;;;;;;34.00;5.97;;;;;;;35.17;23.26;94080.72;4944470;29;20052;-89
2023/07/26 10:09:32;;;;;;;21.02;6.00;;;;;;;35.14;22.88;94067.88;4950695;29;20478;-89
2023/07/26 10:12:01;;;;;;;26.90;6.43;;;;;;;35.09;23.15;94076.75;4950304;29;20034;-89
2023/07/26 10:14:30;;;;;;;29.70;7.20;;;;;;;34.42;22.63;93925.31;4934861;29;20044;-90
2023/07/26 10:16:58;;;;;;;26.27;6.97;;;;;;;36.24;22.58;94103.66;4932147;29;20036;-90
2023/07/26 10:19:28;;;;;;;40.75;7.50;;;;;;;35.67;21.75;93934.44;4933374;29;20055;-90
2023/07/26 10:21:56;;;;;;;27.65;5.28;;;;;;;36.57;21.63;94076.84;4934329;29;20042;-90
2023/07/26 10:24:22;;;;;;;23.90;7.55;;;;;;;37.11;21.41;94081.34;4933636;29;20107;-89
2023/07/26 10:26:49;;;;;;;32.83;6.65;;;;;;;37.13;21.35;94039.44;4960940;28;20070;-89
2023/07/26 10:29:16;;;;;;;28.02;6.38;;;;;;;37.52;20.45;94059.56;4916163;29;20087;-90
2023/07/26 10:31:42;;;;;;;23.98;5.72;;;;;;;37.34;20.22;94056.94;4955728;28;20027;-89
2023/07/26 10:34:09;;;;;;;23.88;5.95;;;;;;;37.80;19.34;94076.69;4933179;29;20028;-90
2023/07/26 10:36:36;;;;;;;27.23;7.07;;;;;;;37.55;19.57;94044.75;4935014;29;20034;-89
2023/07/26 10:39:11;;;;;;;26.23;5.47;;;;;;;37.65;19.72;94026.09;4934967;29;20091;-89
2023/07/26 10:41:46;;;;;;;29.00;6.53;;;;;;;36.41;20.25;93925.38;4933535;29;20548;-89
2023/07/26 10:44:11;;;;;;;20.42;5.40;;;;;;;36.46;19.23;93935.81;4936385;29;20032;-89
2023/07/26 10:46:54;;;;;;;22.83;6.10;;;;;;;37.55;19.27;94094.53;4917841;29;20092;-89
2023/07/26 10:49:24;;;;;;;24.48;6.43;;;;;;;36.76;19.25;94010.50;4950871;28;20043;-88
2023/07/26 10:51:57;;;;;;;31.08;5.97;;;;;;;36.23;19.38;94055.25;4968632;28;20028;-88
2023/07/26 10:54:41;;;;;;;22.80;5.28;;;;;;;36.36;19.70;94097.19;4961825;28;20032;-88
2023/07/26 10:57:16;;;;;;;21.23;5.68;;;;;;;36.03;19.70;93988.72;4928142;28;20050;-89
2023/07/26 10:59:58;;;;;;;24.58;5.60;;;;;;;36.24;19.96;93965.66;4937461;29;20031;-89
2023/07/26 11:02:46;;;;;;;20.25;6.10;;;;;;;37.08;20.08;94076.72;4939398;29;20043;-90
2023/07/26 11:05:22;;;;;;;20.00;5.55;;;;;;;37.46;19.31;94089.84;4936582;29;20154;-89
2023/07/26 11:08:07;;;;;;;20.95;6.03;;;;;;;37.09;19.50;94005.66;4924042;28;20056;-89
2023/07/26 11:10:38;;;;;;;20.80;5.78;;;;;;;36.91;19.66;93984.47;4937376;29;20062;-89
2023/07/26 11:13:09;;;;;;;21.23;6.10;;;;;;;36.89;20.00;93983.41;4945223;29;20028;-89
2023/07/26 11:15:41;;;;;;;27.67;6.07;;;;;;;36.62;20.01;93960.22;4939771;29;20066;-89
2023/07/26 11:18:08;;;;;;;25.20;6.40;;;;;;;36.96;20.18;94057.63;4938368;29;20028;-87
2023/07/26 11:20:38;;;;;;;18.38;4.82;;;;;;;37.35;19.76;94061.22;4923638;28;20035;-88
2023/07/26 11:23:17;;;;;;;22.90;6.43;;;;;;;35.43;20.44;93830.38;4943898;28;20043;-89